createdAt,value
2019-06-23T00:00:43.285Z,99.90
2019-06-23T00:10:50.439Z,99.90
2019-06-23T00:20:59.629Z,99.90
2019-06-23T00:31:06.095Z,99.90
2019-06-23T00:41:12.708Z,99.90
2019-06-23T00:51:19.028Z,99.90
2019-06-23T01:01:34.746Z,99.90
2019-06-23T01:11:53.140Z,99.90
2019-06-23T01:22:01.570Z,99.90
2019-06-23T01:32:13.947Z,99.90
2019-06-23T01:42:25.382Z,99.90
2019-06-23T01:52:36.153Z,99.90
2019-06-23T02:02:45.675Z,99.90
2019-06-23T02:12:54.648Z,99.90
2019-06-23T02:23:15.353Z,99.90
2019-06-23T02:33:19.248Z,99.90
2019-06-23T02:43:24.828Z,99.90
2019-06-23T02:53:36.270Z,99.90
2019-06-23T03:03:46.547Z,99.90
2019-06-23T03:13:58.622Z,99.90
2019-06-23T03:24:02.878Z,99.90
2019-06-23T03:34:13.899Z,99.90
2019-06-23T03:44:23.172Z,99.90
2019-06-23T03:54:34.697Z,99.90
2019-06-23T04:04:45.525Z,99.90
2019-06-23T04:14:49.246Z,99.90
2019-06-23T04:24:59.062Z,99.90
2019-06-23T04:35:07.010Z,99.90
2019-06-23T04:45:20.852Z,99.90
2019-06-23T04:55:25.474Z,99.90
2019-06-23T05:05:31.366Z,99.40
2019-06-23T05:15:38.867Z,98.20
2019-06-23T05:25:48.386Z,97.70
2019-06-23T05:35:55.992Z,96.70
2019-06-23T05:46:00.695Z,96.70
2019-06-23T05:56:12.903Z,96.10
2019-06-23T06:06:20.197Z,95.00
2019-06-23T06:16:25.035Z,95.20
2019-06-23T06:26:31.225Z,95.40
2019-06-23T06:36:37.733Z,95.10
2019-06-23T06:46:56.986Z,94.40
2019-06-23T06:57:05.003Z,92.50
2019-06-23T07:07:26.525Z,90.20
2019-06-23T07:17:21.497Z,84.30
2019-06-23T07:27:37.417Z,81.90
2019-06-23T07:37:43.453Z,78.60
2019-06-23T07:47:52.240Z,75.50
2019-06-23T07:58:07.094Z,56.60
2019-06-23T08:08:25.444Z,54.70
2019-06-23T08:18:48.903Z,60.40
2019-06-23T08:28:57.747Z,61.10
2019-06-23T08:39:11.929Z,64.30
2019-06-23T08:49:49.222Z,63.10
2019-06-23T09:00:14.599Z,46.90
2019-06-23T09:10:23.785Z,52.30
2019-06-23T09:20:30.267Z,45.10
2019-06-23T09:30:43.830Z,44.70
2019-06-23T09:40:45.539Z,51.50
2019-06-23T09:50:47.087Z,51.50
2019-06-23T10:00:49.555Z,28.50
2019-06-23T10:10:51.008Z,24.70
2019-06-23T10:20:52.648Z,28.10
2019-06-23T10:30:54.127Z,26.90
2019-06-23T10:40:55.752Z,24.30
2019-06-23T10:50:57.386Z,36.90
2019-06-23T11:01:15.359Z,41.40
2019-06-23T11:11:17.222Z,31.90
2019-06-23T11:21:18.665Z,30.80
2019-06-23T11:31:23.171Z,29.40
2019-06-23T11:41:24.797Z,33.60
2019-06-23T11:51:26.463Z,34.50
2019-06-23T12:01:30.038Z,39.60
2019-06-23T12:11:31.593Z,35.40
2019-06-23T12:21:33.436Z,37.60
2019-06-23T12:31:34.923Z,40.20
2019-06-23T12:41:37.578Z,40.70
2019-06-23T12:51:39.099Z,45.30
2019-06-23T13:01:40.561Z,47.60
2019-06-23T13:11:41.998Z,46.00
2019-06-23T13:21:43.480Z,46.30
2019-06-23T13:31:45.136Z,49.10
2019-06-23T13:41:47.828Z,48.50
2019-06-23T13:51:49.422Z,46.80
2019-06-23T14:01:51.215Z,45.80
2019-06-23T14:11:52.676Z,47.70
2019-06-23T14:21:54.218Z,47.20
2019-06-23T14:31:55.680Z,50.70
2019-06-23T14:41:57.123Z,51.80
2019-06-23T14:51:58.562Z,52.10
2019-06-23T15:02:00.103Z,50.00
2019-06-23T15:12:01.765Z,50.90
2019-06-23T15:22:03.560Z,50.70
2019-06-23T15:32:05.333Z,50.80
2019-06-23T15:42:10.115Z,50.10
2019-06-23T15:52:10.985Z,49.90
2019-06-23T16:02:12.542Z,54.00
2019-06-23T16:12:17.362Z,52.10
2019-06-23T16:22:20.870Z,53.50
2019-06-23T16:32:25.162Z,53.60
2019-06-23T16:42:32.933Z,54.70
2019-06-23T16:52:30.167Z,55.80
2019-06-23T17:02:31.727Z,53.10
2019-06-23T17:12:48.608Z,55.60
2019-06-23T17:22:38.150Z,55.80
2019-06-23T17:32:39.613Z,56.60
2019-06-23T17:42:41.180Z,56.10
2019-06-23T17:52:42.689Z,58.90
2019-06-23T18:02:45.561Z,59.10
2019-06-23T18:12:47.846Z,60.40
2019-06-23T18:22:49.910Z,59.60
2019-06-23T18:32:51.596Z,62.60
2019-06-23T18:42:53.366Z,63.80
2019-06-23T18:52:55.227Z,70.80
2019-06-23T19:03:12.109Z,73.20
2019-06-23T19:13:15.723Z,81.30
2019-06-23T19:23:23.980Z,84.70
2019-06-23T19:33:31.900Z,88.60
2019-06-23T19:43:33.920Z,91.10
2019-06-23T19:53:35.490Z,92.00
2019-06-23T20:03:38.054Z,93.50
2019-06-23T20:13:39.607Z,93.60
2019-06-23T20:23:41.148Z,95.70
2019-06-23T20:33:44.828Z,96.50
2019-06-23T20:43:54.457Z,97.00
2019-06-23T20:54:00.405Z,97.20
2019-06-23T21:04:01.278Z,98.80
2019-06-23T21:14:11.143Z,99.80
2019-06-23T21:24:17.343Z,99.90
2019-06-23T21:34:22.931Z,99.90
2019-06-23T21:44:26.375Z,99.90
2019-06-23T21:54:27.897Z,99.90
2019-06-23T22:04:29.328Z,99.90
2019-06-23T22:14:30.793Z,99.90
2019-06-23T22:24:32.343Z,99.90
2019-06-23T22:34:33.772Z,99.90
2019-06-23T22:44:35.220Z,99.90
2019-06-23T22:54:36.647Z,99.90
2019-06-23T23:04:38.075Z,99.90
2019-06-23T23:14:39.634Z,99.90
2019-06-23T23:24:41.072Z,99.90
2019-06-23T23:34:42.496Z,99.90
2019-06-23T23:44:43.957Z,99.90
2019-06-23T23:54:45.390Z,99.90
